EAL452 KSTL-KOMA
Flight info
| Callsign | EAL452 |
|---|---|
| Flight time | 0h 59m |
| Altitude | 32000 |
| Route | WHRLI7 MCM LMN MARWI4 |
| Aircraft | B737/M-SDE2E3FGHIRWXY/LB1 |
Departure
| Time | 2026-05-07 16:03 |
|---|---|
| Airport | St. Louis Lambert International Airport (KSTL) |
Arrival
| Time | 2026-05-07 17:03 |
|---|---|
| Airport | Eppley Airfield (KOMA) |
| Time | Latitude | Longitude | Altitude | Speed | Heading |
|---|---|---|---|---|---|
| 2026-05-07 15:39 | 38.74511 | -90.36716 | 616 ft | 0 kts | 252° |
| 2026-05-07 15:52 | 38.74515 | -90.36702 | 629 ft | 2 kts | 252° |
| 2026-05-07 15:53 | 38.74519 | -90.36683 | 627 ft | 2 kts | 242° |
| 2026-05-07 15:53 | 38.74531 | -90.36668 | 629 ft | 2 kts | 186° |
| 2026-05-07 15:53 | 38.74546 | -90.36674 | 630 ft | 2 kts | 144° |
| 2026-05-07 15:57 | 38.74543 | -90.36672 | 616 ft | 2 kts | 143° |
| 2026-05-07 15:57 | 38.74549 | -90.36663 | 616 ft | 2 kts | 7° |
| 2026-05-07 15:57 | 38.74571 | -90.36684 | 626 ft | 6 kts | 317° |
| 2026-05-07 15:57 | 38.74603 | -90.36742 | 625 ft | 10 kts | 301° |
| 2026-05-07 15:58 | 38.74640 | -90.36823 | 617 ft | 11 kts | 299° |
| 2026-05-07 15:58 | 38.74678 | -90.36903 | 616 ft | 10 kts | 302° |
| 2026-05-07 15:58 | 38.74717 | -90.36979 | 622 ft | 10 kts | 302° |
| 2026-05-07 15:58 | 38.74755 | -90.37058 | 621 ft | 11 kts | 302° |
| 2026-05-07 15:59 | 38.74800 | -90.37149 | 616 ft | 13 kts | 302° |
| 2026-05-07 15:59 | 38.74852 | -90.37253 | 626 ft | 14 kts | 302° |
| 2026-05-07 15:59 | 38.74884 | -90.37369 | 617 ft | 15 kts | 301° |
| 2026-05-07 15:59 | 38.74945 | -90.37492 | 622 ft | 18 kts | 302° |
| 2026-05-07 16:00 | 38.75012 | -90.37628 | 615 ft | 18 kts | 303° |
| 2026-05-07 16:00 | 38.75076 | -90.37759 | 619 ft | 17 kts | 302° |
| 2026-05-07 16:00 | 38.75138 | -90.37885 | 624 ft | 16 kts | 303° |
| 2026-05-07 16:00 | 38.75190 | -90.37990 | 628 ft | 10 kts | 303° |
| 2026-05-07 16:01 | 38.75246 | -90.38016 | 619 ft | 9 kts | 20° |
| 2026-05-07 16:01 | 38.75297 | -90.37976 | 619 ft | 7 kts | 32° |
| 2026-05-07 16:01 | 38.75306 | -90.37969 | 620 ft | 0 kts | 32° |
| 2026-05-07 16:02 | 38.75313 | -90.37964 | 619 ft | 3 kts | 32° |
| 2026-05-07 16:02 | 38.75351 | -90.37932 | 623 ft | 9 kts | 32° |
| 2026-05-07 16:02 | 38.75372 | -90.37877 | 619 ft | 8 kts | 115° |
| 2026-05-07 16:02 | 38.75343 | -90.37818 | 618 ft | 9 kts | 122° |
| 2026-05-07 16:03 | 38.75221 | -90.37570 | 614 ft | 75 kts | 122° |
| 2026-05-07 16:03 | 38.74787 | -90.36689 | 615 ft | 156 kts | 122° |
| 2026-05-07 16:03 | 38.74144 | -90.35358 | 1106 ft | 187 kts | 124° |
| 2026-05-07 16:03 | 38.73444 | -90.33924 | 2128 ft | 191 kts | 125° |
| 2026-05-07 16:04 | 38.72736 | -90.32481 | 3175 ft | 202 kts | 125° |
| 2026-05-07 16:04 | 38.71916 | -90.30841 | 3577 ft | 235 kts | 124° |
| 2026-05-07 16:04 | 38.71007 | -90.29028 | 4328 ft | 246 kts | 125° |
| 2026-05-07 16:04 | 38.69784 | -90.27435 | 4945 ft | 263 kts | 154° |
| 2026-05-07 16:05 | 38.67990 | -90.27015 | 5819 ft | 268 kts | 190° |
| 2026-05-07 16:05 | 38.66189 | -90.27685 | 6778 ft | 274 kts | 200° |
| 2026-05-07 16:05 | 38.64388 | -90.28387 | 7708 ft | 281 kts | 201° |
| 2026-05-07 16:05 | 38.62736 | -90.29796 | 8643 ft | 281 kts | 235° |
| 2026-05-07 16:06 | 38.61857 | -90.32016 | 9633 ft | 281 kts | 248° |
| 2026-05-07 16:06 | 38.60980 | -90.34282 | 10515 ft | 289 kts | 249° |
| 2026-05-07 16:06 | 38.60605 | -90.36851 | 10855 ft | 311 kts | 275° |
| 2026-05-07 16:06 | 38.60909 | -90.39692 | 11230 ft | 331 kts | 281° |
| 2026-05-07 16:07 | 38.61312 | -90.42587 | 12021 ft | 337 kts | 281° |
| 2026-05-07 16:07 | 38.61708 | -90.45540 | 13047 ft | 336 kts | 280° |
| 2026-05-07 16:07 | 38.62145 | -90.48463 | 14055 ft | 336 kts | 286° |
| 2026-05-07 16:07 | 38.63139 | -90.51173 | 14944 ft | 339 kts | 299° |
| 2026-05-07 16:08 | 38.64382 | -90.53756 | 15800 ft | 342 kts | 300° |
| 2026-05-07 16:08 | 38.65635 | -90.56362 | 16594 ft | 345 kts | 299° |
| 2026-05-07 16:08 | 38.66882 | -90.59004 | 17427 ft | 347 kts | 298° |
| 2026-05-07 16:08 | 38.68137 | -90.61615 | 18228 ft | 349 kts | 302° |
| 2026-05-07 16:09 | 38.69796 | -90.63930 | 18960 ft | 358 kts | 314° |
| 2026-05-07 16:09 | 38.71710 | -90.65995 | 19675 ft | 362 kts | 315° |
| 2026-05-07 16:09 | 38.73665 | -90.68061 | 20334 ft | 366 kts | 315° |
| 2026-05-07 16:09 | 38.75635 | -90.70142 | 20991 ft | 369 kts | 315° |
| 2026-05-07 16:10 | 38.77623 | -90.72254 | 21601 ft | 372 kts | 315° |
| 2026-05-07 16:10 | 38.79623 | -90.74393 | 22213 ft | 375 kts | 314° |
| 2026-05-07 16:10 | 38.81632 | -90.76552 | 22808 ft | 377 kts | 314° |
| 2026-05-07 16:10 | 38.83623 | -90.78700 | 23378 ft | 380 kts | 314° |
| 2026-05-07 16:11 | 38.85652 | -90.80894 | 23936 ft | 383 kts | 314° |
| 2026-05-07 16:11 | 38.87693 | -90.83105 | 24456 ft | 386 kts | 314° |
| 2026-05-07 16:11 | 38.89749 | -90.85336 | 24972 ft | 388 kts | 314° |
| 2026-05-07 16:11 | 38.91822 | -90.87585 | 25466 ft | 391 kts | 314° |
| 2026-05-07 16:12 | 38.93908 | -90.89851 | 25942 ft | 393 kts | 314° |
| 2026-05-07 16:12 | 38.95999 | -90.92124 | 26387 ft | 396 kts | 314° |
| 2026-05-07 16:12 | 38.98109 | -90.94419 | 26821 ft | 398 kts | 314° |
| 2026-05-07 16:12 | 39.00223 | -90.96719 | 27255 ft | 400 kts | 314° |
| 2026-05-07 16:13 | 39.02357 | -90.99044 | 27651 ft | 402 kts | 314° |
| 2026-05-07 16:13 | 39.04495 | -91.01374 | 28191 ft | 401 kts | 314° |
| 2026-05-07 16:13 | 39.06610 | -91.03680 | 28819 ft | 397 kts | 313° |
| 2026-05-07 16:13 | 39.08681 | -91.05942 | 29456 ft | 392 kts | 312° |
| 2026-05-07 16:14 | 39.10511 | -91.08478 | 30018 ft | 383 kts | 301° |
| 2026-05-07 16:14 | 39.11862 | -91.11401 | 30543 ft | 378 kts | 295° |
| 2026-05-07 16:14 | 39.13079 | -91.14384 | 31094 ft | 375 kts | 294° |
| 2026-05-07 16:14 | 39.14285 | -91.17351 | 31586 ft | 374 kts | 294° |
| 2026-05-07 16:15 | 39.15510 | -91.20308 | 32009 ft | 374 kts | 294° |
| 2026-05-07 16:15 | 39.17974 | -91.26212 | 32089 ft | 373 kts | 294° |
| 2026-05-07 16:16 | 39.20342 | -91.32170 | 32100 ft | 373 kts | 293° |
| 2026-05-07 16:16 | 39.22677 | -91.38113 | 32097 ft | 373 kts | 293° |
| 2026-05-07 16:17 | 39.25030 | -91.44094 | 32092 ft | 374 kts | 294° |
| 2026-05-07 16:17 | 39.27387 | -91.50081 | 32097 ft | 374 kts | 294° |
| 2026-05-07 16:18 | 39.29739 | -91.56065 | 32090 ft | 373 kts | 294° |
| 2026-05-07 16:18 | 39.32073 | -91.62008 | 32095 ft | 373 kts | 294° |
| 2026-05-07 16:19 | 39.34404 | -91.67956 | 32092 ft | 373 kts | 294° |
| 2026-05-07 16:19 | 39.36742 | -91.73935 | 32092 ft | 372 kts | 294° |
| 2026-05-07 16:20 | 39.39073 | -91.79905 | 32083 ft | 371 kts | 294° |
| 2026-05-07 16:20 | 39.41393 | -91.85861 | 32080 ft | 371 kts | 294° |
| 2026-05-07 16:21 | 39.43709 | -91.91817 | 32083 ft | 370 kts | 294° |
| 2026-05-07 16:21 | 39.46001 | -91.97725 | 32086 ft | 369 kts | 294° |
| 2026-05-07 16:22 | 39.48303 | -92.03671 | 32078 ft | 369 kts | 294° |
| 2026-05-07 16:22 | 39.50602 | -92.09619 | 32073 ft | 369 kts | 294° |
| 2026-05-07 16:23 | 39.52900 | -92.15576 | 32070 ft | 368 kts | 294° |
| 2026-05-07 16:23 | 39.55187 | -92.21518 | 32075 ft | 368 kts | 294° |
| 2026-05-07 16:24 | 39.57455 | -92.27425 | 32077 ft | 369 kts | 294° |
| 2026-05-07 16:24 | 39.59740 | -92.33385 | 32075 ft | 368 kts | 294° |
| 2026-05-07 16:25 | 39.62018 | -92.39337 | 32075 ft | 368 kts | 294° |
| 2026-05-07 16:25 | 39.64283 | -92.45267 | 32077 ft | 368 kts | 294° |
| 2026-05-07 16:26 | 39.67035 | -92.50890 | 32091 ft | 374 kts | 305° |
| 2026-05-07 16:26 | 39.70417 | -92.56035 | 32083 ft | 375 kts | 306° |
| 2026-05-07 16:27 | 39.73810 | -92.61206 | 32069 ft | 376 kts | 306° |
| 2026-05-07 16:27 | 39.77189 | -92.66403 | 32066 ft | 376 kts | 305° |
| 2026-05-07 16:28 | 39.80558 | -92.71611 | 32060 ft | 376 kts | 305° |
| 2026-05-07 16:28 | 39.83923 | -92.76831 | 32056 ft | 376 kts | 305° |
| 2026-05-07 16:29 | 39.87288 | -92.82062 | 32056 ft | 377 kts | 305° |
| 2026-05-07 16:29 | 39.90634 | -92.87271 | 32047 ft | 377 kts | 305° |
| 2026-05-07 16:30 | 39.94002 | -92.92523 | 32042 ft | 378 kts | 305° |
| 2026-05-07 16:30 | 39.97367 | -92.97780 | 32047 ft | 378 kts | 305° |
| 2026-05-07 16:31 | 40.00733 | -93.03045 | 32040 ft | 378 kts | 305° |
| 2026-05-07 16:31 | 40.04094 | -93.08313 | 32054 ft | 377 kts | 305° |
| 2026-05-07 16:32 | 40.07448 | -93.13579 | 32041 ft | 376 kts | 306° |
| 2026-05-07 16:32 | 40.10772 | -93.18806 | 32051 ft | 376 kts | 305° |
| 2026-05-07 16:33 | 40.14112 | -93.24067 | 32036 ft | 376 kts | 305° |
| 2026-05-07 16:33 | 40.17446 | -93.29329 | 32036 ft | 375 kts | 305° |
| 2026-05-07 16:34 | 40.20779 | -93.34598 | 32034 ft | 376 kts | 305° |
| 2026-05-07 16:34 | 40.24110 | -93.39872 | 32037 ft | 375 kts | 305° |
| 2026-05-07 16:35 | 40.27438 | -93.45152 | 32035 ft | 376 kts | 305° |
| 2026-05-07 16:35 | 40.30745 | -93.50406 | 32027 ft | 376 kts | 305° |
| 2026-05-07 16:36 | 40.34075 | -93.55707 | 32023 ft | 377 kts | 305° |
| 2026-05-07 16:36 | 40.37420 | -93.61038 | 32022 ft | 378 kts | 305° |
| 2026-05-07 16:37 | 40.40199 | -93.65477 | 32017 ft | 379 kts | 305° |
| 2026-05-07 16:37 | 40.43543 | -93.70825 | 32012 ft | 379 kts | 305° |
| 2026-05-07 16:38 | 40.46891 | -93.76188 | 32009 ft | 380 kts | 305° |
| 2026-05-07 16:38 | 40.50235 | -93.81556 | 32011 ft | 379 kts | 305° |
| 2026-05-07 16:39 | 40.53574 | -93.86927 | 32001 ft | 380 kts | 305° |
| 2026-05-07 16:39 | 40.56916 | -93.92305 | 32002 ft | 379 kts | 305° |
| 2026-05-07 16:40 | 40.59801 | -93.97990 | 32006 ft | 374 kts | 290° |
| 2026-05-07 16:40 | 40.61094 | -94.04613 | 31998 ft | 374 kts | 283° |
| 2026-05-07 16:41 | 40.62162 | -94.11309 | 32001 ft | 374 kts | 282° |
| 2026-05-07 16:41 | 40.63245 | -94.18023 | 31649 ft | 377 kts | 283° |
| 2026-05-07 16:41 | 40.63790 | -94.21366 | 31184 ft | 371 kts | 283° |
| 2026-05-07 16:42 | 40.64320 | -94.24607 | 30705 ft | 365 kts | 283° |
| 2026-05-07 16:42 | 40.64853 | -94.27857 | 30147 ft | 361 kts | 283° |
| 2026-05-07 16:42 | 40.65380 | -94.31070 | 29598 ft | 357 kts | 283° |
| 2026-05-07 16:42 | 40.65900 | -94.34244 | 29033 ft | 353 kts | 283° |
| 2026-05-07 16:43 | 40.66416 | -94.37390 | 28479 ft | 349 kts | 283° |
| 2026-05-07 16:43 | 40.66923 | -94.40501 | 27925 ft | 345 kts | 283° |
| 2026-05-07 16:43 | 40.67425 | -94.43580 | 27383 ft | 341 kts | 284° |
| 2026-05-07 16:43 | 40.67922 | -94.46626 | 26833 ft | 338 kts | 284° |
| 2026-05-07 16:44 | 40.68406 | -94.49601 | 26298 ft | 335 kts | 284° |
| 2026-05-07 16:44 | 40.68891 | -94.52587 | 25765 ft | 332 kts | 284° |
| 2026-05-07 16:44 | 40.69371 | -94.55550 | 25235 ft | 328 kts | 284° |
| 2026-05-07 16:44 | 40.69845 | -94.58477 | 24706 ft | 325 kts | 284° |
| 2026-05-07 16:45 | 40.70314 | -94.61379 | 24186 ft | 322 kts | 284° |
| 2026-05-07 16:45 | 40.70777 | -94.64257 | 23663 ft | 319 kts | 284° |
| 2026-05-07 16:45 | 40.71236 | -94.67107 | 23151 ft | 316 kts | 284° |
| 2026-05-07 16:45 | 40.71689 | -94.69928 | 22645 ft | 313 kts | 284° |
| 2026-05-07 16:46 | 40.72137 | -94.72720 | 22138 ft | 311 kts | 284° |
| 2026-05-07 16:46 | 40.72582 | -94.75498 | 21634 ft | 308 kts | 284° |
| 2026-05-07 16:46 | 40.73023 | -94.78256 | 21112 ft | 306 kts | 285° |
| 2026-05-07 16:46 | 40.73459 | -94.80987 | 20612 ft | 303 kts | 285° |
| 2026-05-07 16:47 | 40.73891 | -94.83699 | 20100 ft | 301 kts | 284° |
| 2026-05-07 16:47 | 40.74316 | -94.86364 | 19621 ft | 299 kts | 285° |
| 2026-05-07 16:47 | 40.74741 | -94.89040 | 19127 ft | 297 kts | 285° |
| 2026-05-07 16:47 | 40.75164 | -94.91709 | 18636 ft | 295 kts | 285° |
| 2026-05-07 16:48 | 40.75582 | -94.94348 | 18147 ft | 293 kts | 285° |
| 2026-05-07 16:48 | 40.75998 | -94.96976 | 17651 ft | 291 kts | 285° |
| 2026-05-07 16:48 | 40.76405 | -94.99549 | 17178 ft | 289 kts | 284° |
| 2026-05-07 16:48 | 40.76814 | -95.02144 | 16687 ft | 287 kts | 284° |
| 2026-05-07 16:49 | 40.77218 | -95.04718 | 16216 ft | 287 kts | 284° |
| 2026-05-07 16:49 | 40.77650 | -95.07293 | 16066 ft | 289 kts | 289° |
| 2026-05-07 16:49 | 40.78510 | -95.09661 | 16004 ft | 285 kts | 303° |
| 2026-05-07 16:49 | 40.79675 | -95.11725 | 15976 ft | 275 kts | 307° |
| 2026-05-07 16:50 | 40.80854 | -95.13657 | 15711 ft | 268 kts | 307° |
| 2026-05-07 16:50 | 40.82025 | -95.15557 | 15309 ft | 266 kts | 307° |
| 2026-05-07 16:50 | 40.83193 | -95.17463 | 14829 ft | 267 kts | 307° |
| 2026-05-07 16:50 | 40.84360 | -95.19380 | 14392 ft | 267 kts | 306° |
| 2026-05-07 16:51 | 40.85414 | -95.21359 | 13954 ft | 267 kts | 302° |
| 2026-05-07 16:51 | 40.86431 | -95.23412 | 13529 ft | 267 kts | 302° |
| 2026-05-07 16:51 | 40.87442 | -95.25470 | 13082 ft | 267 kts | 301° |
| 2026-05-07 16:51 | 40.88456 | -95.27532 | 12682 ft | 266 kts | 301° |
| 2026-05-07 16:52 | 40.89468 | -95.29577 | 12245 ft | 266 kts | 301° |
| 2026-05-07 16:52 | 40.90487 | -95.31623 | 11771 ft | 267 kts | 301° |
| 2026-05-07 16:52 | 40.91512 | -95.33677 | 11326 ft | 268 kts | 301° |
| 2026-05-07 16:52 | 40.92539 | -95.35729 | 10912 ft | 267 kts | 301° |
| 2026-05-07 16:53 | 40.93569 | -95.37777 | 10477 ft | 268 kts | 301° |
| 2026-05-07 16:53 | 40.94594 | -95.39806 | 10244 ft | 260 kts | 301° |
| 2026-05-07 16:53 | 40.95598 | -95.41782 | 9956 ft | 257 kts | 302° |
| 2026-05-07 16:53 | 40.96597 | -95.43745 | 9570 ft | 256 kts | 302° |
| 2026-05-07 16:54 | 40.97586 | -95.45690 | 9149 ft | 258 kts | 302° |
| 2026-05-07 16:54 | 40.98591 | -95.47660 | 8769 ft | 258 kts | 302° |
| 2026-05-07 16:54 | 40.99597 | -95.49629 | 8404 ft | 257 kts | 301° |
| 2026-05-07 16:54 | 41.00598 | -95.51582 | 8079 ft | 255 kts | 302° |
| 2026-05-07 16:55 | 41.01593 | -95.53518 | 7766 ft | 250 kts | 302° |
| 2026-05-07 16:55 | 41.02541 | -95.55353 | 7673 ft | 234 kts | 302° |
| 2026-05-07 16:55 | 41.03422 | -95.57049 | 7505 ft | 221 kts | 302° |
| 2026-05-07 16:55 | 41.04291 | -95.58708 | 7132 ft | 214 kts | 302° |
| 2026-05-07 16:56 | 41.05146 | -95.60336 | 6580 ft | 216 kts | 302° |
| 2026-05-07 16:56 | 41.05991 | -95.61943 | 6127 ft | 214 kts | 302° |
| 2026-05-07 16:56 | 41.07696 | -95.65169 | 5156 ft | 214 kts | 302° |
| 2026-05-07 16:57 | 41.08555 | -95.66786 | 5030 ft | 217 kts | 302° |
| 2026-05-07 16:57 | 41.09430 | -95.68434 | 4992 ft | 219 kts | 302° |
| 2026-05-07 16:57 | 41.10297 | -95.70065 | 4900 ft | 210 kts | 302° |
| 2026-05-07 16:57 | 41.11235 | -95.71451 | 4735 ft | 197 kts | 320° |
| 2026-05-07 16:58 | 41.12324 | -95.72448 | 4500 ft | 187 kts | 319° |
| 2026-05-07 16:58 | 41.13355 | -95.73461 | 4095 ft | 186 kts | 319° |
| 2026-05-07 16:58 | 41.14402 | -95.74479 | 3717 ft | 188 kts | 320° |
| 2026-05-07 16:58 | 41.15458 | -95.75491 | 3479 ft | 186 kts | 320° |
| 2026-05-07 16:59 | 41.16493 | -95.76445 | 3376 ft | 178 kts | 321° |
| 2026-05-07 16:59 | 41.17502 | -95.77381 | 3141 ft | 176 kts | 320° |
| 2026-05-07 16:59 | 41.18507 | -95.78333 | 3024 ft | 179 kts | 320° |
| 2026-05-07 16:59 | 41.19529 | -95.79306 | 2983 ft | 180 kts | 320° |
| 2026-05-07 17:00 | 41.20538 | -95.80268 | 2983 ft | 177 kts | 320° |
| 2026-05-07 17:00 | 41.21535 | -95.81221 | 2839 ft | 175 kts | 320° |
| 2026-05-07 17:00 | 41.22505 | -95.82147 | 2624 ft | 168 kts | 321° |
| 2026-05-07 17:00 | 41.23428 | -95.83027 | 2408 ft | 160 kts | 320° |
| 2026-05-07 17:01 | 41.24299 | -95.83857 | 2189 ft | 150 kts | 321° |
| 2026-05-07 17:01 | 41.25122 | -95.84642 | 1999 ft | 143 kts | 321° |
| 2026-05-07 17:01 | 41.25925 | -95.85409 | 1823 ft | 142 kts | 321° |
| 2026-05-07 17:01 | 41.26727 | -95.86177 | 1630 ft | 141 kts | 324° |
| 2026-05-07 17:02 | 41.27514 | -95.86926 | 1439 ft | 138 kts | 325° |
| 2026-05-07 17:02 | 41.28279 | -95.87660 | 1258 ft | 137 kts | 324° |
| 2026-05-07 17:02 | 41.29050 | -95.88396 | 1058 ft | 135 kts | 326° |
| 2026-05-07 17:02 | 41.29770 | -95.89075 | 983 ft | 105 kts | 324° |
| 2026-05-07 17:03 | 41.30177 | -95.89463 | 989 ft | 36 kts | 324° |
| 2026-05-07 17:03 | 41.30285 | -95.89572 | 987 ft | 11 kts | 298° |
| 2026-05-07 17:03 | 41.30230 | -95.89605 | 990 ft | 10 kts | 180° |
| 2026-05-07 17:03 | 41.30159 | -95.89607 | 987 ft | 10 kts | 181° |
| 2026-05-07 17:04 | 41.30090 | -95.89607 | 989 ft | 10 kts | 179° |
| 2026-05-07 17:04 | 41.30023 | -95.89606 | 991 ft | 9 kts | 182° |
| 2026-05-07 17:04 | 41.29995 | -95.89676 | 988 ft | 8 kts | 259° |
| 2026-05-07 17:04 | 41.29987 | -95.89745 | 984 ft | 6 kts | 269° |
| 2026-05-07 17:05 | 41.29988 | -95.89799 | 987 ft | 5 kts | 274° |
| 2026-05-07 17:05 | 41.30012 | -95.89817 | 991 ft | 4 kts | 347° |
| 2026-05-07 17:05 | 41.30039 | -95.89823 | 984 ft | 4 kts | 351° |
| 2026-05-07 17:05 | 41.30043 | -95.89824 | 990 ft | 0 kts | 351° |